Time;durP1;ratioP1;P1;durP2;ratioP2;P2;SDS_P1;SDS_P2;PMS_P1;PMS_P2;Temp;Humidity;BMP_temperature;BMP_pressure;BME280_temperature;BME280_humidity;BME280_pressure;Samples;Min_cycle;Max_cycle;Signal;HPM_P1;HPM_P2
2022/10/17 00:00:41;;;;;;;21.40;13.07;;;;;;;10.18;93.05;99836.94;2102894;85;20956;-80
2022/10/17 00:03:42;;;;;;;20.13;12.83;;;;;;;10.16;93.09;99838.63;2103005;85;21028;-80
2022/10/17 00:06:42;;;;;;;25.87;13.10;;;;;;;10.17;93.26;99846.03;2102844;85;20951;-79
2022/10/17 00:09:43;;;;;;;21.90;13.33;;;;;;;10.14;93.03;99845.94;2113090;83;20978;-80
2022/10/17 00:12:43;;;;;;;22.87;14.17;;;;;;;10.10;93.04;99848.87;2144613;83;21022;-80
2022/10/17 00:15:43;;;;;;;19.40;14.73;;;;;;;10.08;93.11;99847.95;2144310;83;21415;-80
2022/10/17 00:18:44;;;;;;;21.40;13.57;;;;;;;10.06;93.13;99845.72;2144293;83;21005;-79
2022/10/17 00:21:44;;;;;;;28.07;13.53;;;;;;;10.05;92.74;99857.41;2144820;83;20999;-80
2022/10/17 00:24:45;;;;;;;19.63;13.67;;;;;;;9.98;92.90;99852.84;2144594;83;21009;-79
2022/10/17 00:27:45;;;;;;;24.23;14.30;;;;;;;9.98;93.23;99861.98;2144649;83;20982;-80
2022/10/17 00:30:45;;;;;;;23.20;13.57;;;;;;;9.97;93.14;99860.20;2144751;83;20990;-79
2022/10/17 00:33:48;;;;;;;20.73;13.37;;;;;;;9.93;93.12;99861.83;2116096;83;20957;-80
2022/10/17 00:36:48;;;;;;;16.43;12.97;;;;;;;9.95;93.41;99864.07;2144524;83;20957;-80
2022/10/17 00:39:49;;;;;;;90.37;17.77;;;;;;;9.95;93.21;99860.58;2144211;83;21045;-80
2022/10/17 00:42:51;;;;;;;54.60;14.07;;;;;;;9.94;93.33;99867.52;2144194;82;20982;-81
2022/10/17 00:45:49;;;;;;;27.87;13.40;;;;;;;9.94;93.27;99862.72;2144226;83;21013;-82
2022/10/17 00:48:50;;;;;;;59.57;15.57;;;;;;;9.95;93.36;99861.46;2144492;83;21008;-81
2022/10/17 00:51:50;;;;;;;24.93;14.90;;;;;;;9.94;93.19;99862.72;2144680;83;21370;-80
2022/10/17 00:54:51;;;;;;;20.40;13.33;;;;;;;9.92;93.07;99869.19;2144637;83;20961;-79
2022/10/17 00:57:51;;;;;;;21.03;13.17;;;;;;;9.90;93.24;99871.75;2144601;83;20986;-80
2022/10/17 01:00:51;;;;;;;16.47;12.93;;;;;;;9.90;93.14;99868.27;2144375;83;20986;-79
2022/10/17 01:03:52;;;;;;;22.83;13.07;;;;;;;9.90;92.97;99870.87;2144346;83;21005;-80
2022/10/17 01:06:52;;;;;;;24.13;12.73;;;;;;;9.90;92.67;99873.06;2144290;83;21024;-80
2022/10/17 01:09:53;;;;;;;20.30;13.17;;;;;;;9.88;92.40;99869.94;2134951;83;21372;-80
2022/10/17 01:12:53;;;;;;;20.23;14.30;;;;;;;9.84;92.31;99865.47;2103223;85;20968;-80
2022/10/17 01:15:54;;;;;;;28.80;15.07;;;;;;;9.82;92.76;99866.72;2103154;85;20965;-81
2022/10/17 01:18:54;;;;;;;19.93;13.57;;;;;;;9.81;92.57;99867.98;2103283;85;20957;-81
2022/10/17 01:21:54;;;;;;;28.40;13.17;;;;;;;9.78;92.49;99860.06;2103240;85;20945;-80
2022/10/17 01:24:55;;;;;;;23.43;14.07;;;;;;;9.78;92.64;99865.28;2103326;85;20988;-80
2022/10/17 01:27:55;;;;;;;26.20;13.97;;;;;;;9.76;92.69;99866.53;2103168;85;21317;-80
2022/10/17 01:30:55;;;;;;;26.20;13.90;;;;;;;9.74;92.49;99866.02;2103022;85;20960;-80
2022/10/17 01:33:56;;;;;;;24.97;13.63;;;;;;;9.71;92.34;99868.11;2103029;85;20975;-81
2022/10/17 01:36:56;;;;;;;23.53;12.70;;;;;;;9.68;92.29;99876.25;2102905;85;21385;-81
2022/10/17 01:39:57;;;;;;;27.73;14.03;;;;;;;9.65;92.56;99877.04;2103029;85;20996;-80
2022/10/17 01:42:57;;;;;;;30.23;14.77;;;;;;;9.63;92.81;99882.62;2103012;85;20988;-77
2022/10/17 01:45:59;;;;;;;26.07;15.07;;;;;;;9.64;93.15;99878.30;2103162;85;21012;-81
2022/10/17 01:49:00;;;;;;;19.70;14.07;;;;;;;9.64;93.24;99887.42;2078023;85;20972;-80
2022/10/17 01:52:00;;;;;;;35.07;13.73;;;;;;;9.62;92.49;99887.79;2103033;85;20960;-80
2022/10/17 01:55:00;;;;;;;23.00;12.27;;;;;;;9.58;92.70;99890.72;2102677;85;20940;-80
2022/10/17 01:58:01;;;;;;;25.60;13.90;;;;;;;9.56;92.53;99885.45;2102940;85;20933;-80
2022/10/17 02:01:01;;;;;;;24.30;13.73;;;;;;;9.53;92.83;99885.73;2102317;84;21016;-81
2022/10/17 02:04:03;;;;;;;21.87;13.73;;;;;;;9.48;92.58;99884.28;2102819;85;20992;-76
2022/10/17 02:07:03;;;;;;;87.03;17.80;;;;;;;9.46;92.66;99891.59;2102196;85;20996;-82
2022/10/17 02:10:03;;;;;;;29.07;14.80;;;;;;;9.47;93.08;99895.97;2104025;82;20997;-81
2022/10/17 02:13:04;;;;;;;19.03;14.83;;;;;;;9.45;92.92;99890.70;2104376;85;20909;-81
2022/10/17 02:16:04;;;;;;;22.63;14.93;;;;;;;9.40;92.58;99893.99;2104325;85;20987;-81
2022/10/17 02:19:04;;;;;;;21.80;15.57;;;;;;;9.37;92.64;99902.59;2104404;85;20968;-82
2022/10/17 02:22:05;;;;;;;24.23;16.33;;;;;;;9.33;92.51;99907.23;2104257;85;21012;-81
2022/10/17 02:25:05;;;;;;;22.80;17.73;;;;;;;9.31;92.89;99901.50;2103826;85;20988;-81
2022/10/17 02:28:06;;;;;;;31.43;18.50;;;;;;;9.32;93.34;99896.34;2104272;85;20976;-81
2022/10/17 02:31:06;;;;;;;26.23;16.53;;;;;;;9.37;93.65;99892.59;2104363;85;20949;-81
2022/10/17 02:34:06;;;;;;;31.50;18.27;;;;;;;9.37;93.61;99889.98;2104121;85;20989;-81
2022/10/17 02:37:07;;;;;;;31.80;17.77;;;;;;;9.38;93.81;99891.75;2103813;85;20952;-80
2022/10/17 02:40:07;;;;;;;26.30;18.00;;;;;;;9.39;93.67;99896.13;2104168;85;20940;-80
2022/10/17 02:43:08;;;;;;;24.97;18.27;;;;;;;9.36;93.38;99902.54;2103768;85;20965;-81
2022/10/17 02:46:08;;;;;;;35.80;20.10;;;;;;;9.36;94.00;99903.84;2103949;85;20961;-79
2022/10/17 02:49:08;;;;;;;36.07;21.97;;;;;;;10.11;100.00;99896.30;2104061;85;20996;-81
2022/10/17 02:52:09;;;;;;;34.47;19.70;;;;;;;12.83;100.00;99891.46;2103695;85;20961;-81
2022/10/17 02:55:09;;;;;;;27.60;19.57;;;;;;;14.73;100.00;99891.06;2103026;85;20953;-81
2022/10/17 02:58:10;;;;;;;32.65;18.60;;;;;;;16.00;98.16;99892.77;2103014;85;21333;-81
2022/10/17 03:01:10;;;;;;;29.15;18.77;;;;;;;16.91;92.16;99887.12;2103588;85;20988;-81
2022/10/17 03:04:10;;;;;;;25.72;16.32;;;;;;;17.57;87.10;99880.20;2103821;85;20921;-79
2022/10/17 03:07:11;;;;;;;25.25;17.55;;;;;;;18.03;82.61;99876.23;2103464;85;20972;-81
2022/10/17 03:10:11;;;;;;;29.98;17.77;;;;;;;17.89;74.49;99884.17;2103515;83;20964;-81
2022/10/17 03:13:12;;;;;;;26.65;18.65;;;;;;;16.09;71.23;99881.41;2103446;85;20991;-82
2022/10/17 03:16:12;;;;;;;27.52;19.32;;;;;;;14.57;71.88;99890.88;2103397;85;20972;-81
2022/10/17 03:19:12;;;;;;;29.95;20.00;;;;;;;13.48;74.12;99890.09;2103621;85;20983;-81
2022/10/17 03:22:13;;;;;;;27.35;20.15;;;;;;;12.67;75.74;99902.95;2102992;85;20972;-80
2022/10/17 03:25:13;;;;;;;30.70;21.00;;;;;;;12.06;77.83;99900.30;2103048;85;20972;-81
2022/10/17 03:28:14;;;;;;;33.58;21.45;;;;;;;11.64;79.50;99902.77;2102731;85;20999;-81
2022/10/17 03:31:14;;;;;;;35.83;21.48;;;;;;;11.32;80.78;99905.89;2102620;85;21391;-78
2022/10/17 03:34:18;;;;;;;28.70;20.13;;;;;;;11.08;82.61;99911.33;2102776;85;20973;-81
2022/10/17 03:37:15;;;;;;;29.85;21.15;;;;;;;11.23;84.03;99913.45;2103327;85;20964;-81
2022/10/17 03:40:15;;;;;;;33.95;21.90;;;;;;;11.04;83.79;99915.13;2102384;85;21359;-80
2022/10/17 03:43:16;;;;;;;31.53;21.97;;;;;;;10.83;85.01;99920.22;2101918;85;20996;-80
2022/10/17 03:46:16;;;;;;;36.10;22.90;;;;;;;10.70;85.82;99922.45;2101776;85;20963;-79
2022/10/17 03:49:17;;;;;;;32.37;22.53;;;;;;;10.57;86.24;99926.86;2102544;85;21360;-79
2022/10/17 03:52:17;;;;;;;29.80;21.70;;;;;;;10.46;86.58;99939.59;2101687;85;20973;-81
2022/10/17 03:55:17;;;;;;;30.33;21.27;;;;;;;10.37;87.08;99939.29;2100742;85;20992;-81
2022/10/17 03:58:18;;;;;;;31.00;22.37;;;;;;;10.24;87.45;99934.54;2100518;85;20917;-81
2022/10/17 04:01:18;;;;;;;28.97;22.00;;;;;;;10.13;87.88;99937.67;2100682;85;20944;-80
2022/10/17 04:04:19;;;;;;;30.00;22.70;;;;;;;10.09;88.71;99941.03;2101346;85;21392;-80
2022/10/17 04:07:19;;;;;;;34.30;23.00;;;;;;;9.99;89.10;99941.58;2102268;85;21009;-80
2022/10/17 04:10:19;;;;;;;29.30;22.67;;;;;;;9.93;89.78;99942.69;2106830;83;20978;-82
2022/10/17 04:13:20;;;;;;;30.87;23.30;;;;;;;9.90;90.22;99941.28;2134129;83;20950;-79
2022/10/17 04:16:20;;;;;;;37.23;22.43;;;;;;;9.85;90.34;99954.17;2133498;83;21291;-80
2022/10/17 04:19:21;;;;;;;39.30;23.30;;;;;;;9.82;90.26;99954.50;2133964;83;20982;-81
2022/10/17 04:22:24;;;;;;;34.07;22.53;;;;;;;9.79;91.09;99953.09;2133477;83;21631;-78
2022/10/17 04:25:24;;;;;;;46.63;24.10;;;;;;;9.75;93.97;99963.84;2133137;83;21013;-80
2022/10/17 04:28:24;;;;;;;32.17;21.52;;;;;;;11.80;100.00;99964.22;2133628;83;20998;-78
2022/10/17 04:31:25;;;;;;;26.17;21.05;;;;;;;13.05;90.82;99951.34;2133534;83;20954;-79
2022/10/17 04:34:25;;;;;;;32.28;20.90;;;;;;;12.29;85.59;99962.36;2133137;83;20938;-79
2022/10/17 04:37:26;;;;;;;83.65;25.90;;;;;;;11.59;85.05;99963.65;2134427;83;20935;-79
2022/10/17 04:40:26;;;;;;;35.60;22.35;;;;;;;11.12;85.95;99959.33;2133351;83;20946;-79
2022/10/17 04:43:27;;;;;;;35.05;23.38;;;;;;;10.75;87.25;99954.38;2133222;83;20938;-79
2022/10/17 04:46:27;;;;;;;30.97;21.95;;;;;;;10.51;87.79;99953.67;2132722;83;20982;-79
2022/10/17 04:49:27;;;;;;;44.75;24.15;;;;;;;10.35;88.92;99954.91;2132967;83;20978;-80
2022/10/17 04:52:28;;;;;;;40.33;24.52;;;;;;;10.56;98.79;99956.00;2132349;83;20954;-81
2022/10/17 04:55:28;;;;;;;37.50;24.95;;;;;;;12.88;100.00;99948.34;2132285;83;21417;-80
2022/10/17 04:58:29;;;;;;;35.08;23.87;;;;;;;14.50;93.30;99939.38;2132834;83;20938;-80
2022/10/17 05:01:29;;;;;;;41.15;23.22;;;;;;;15.27;88.02;99942.09;2132774;83;20950;-80
2022/10/17 05:04:29;;;;;;;45.00;22.65;;;;;;;15.76;82.87;99942.18;2132435;83;20973;-80
2022/10/17 05:07:30;;;;;;;44.80;27.13;;;;;;;16.02;81.01;99942.38;2132020;83;20993;-81
2022/10/17 05:10:30;;;;;;;26.73;21.93;;;;;;;15.23;75.34;99943.80;2132949;83;21422;-82
2022/10/17 05:13:31;;;;;;;33.88;21.52;;;;;;;13.99;75.38;99942.99;2141995;83;21577;-82
2022/10/17 05:16:31;;;;;;;38.73;22.80;;;;;;;13.06;76.56;99947.86;2142720;83;20950;-81
2022/10/17 05:19:31;;;;;;;51.60;24.07;;;;;;;12.35;78.37;99960.31;2142512;83;20980;-80
2022/10/17 05:22:32;;;;;;;32.38;21.82;;;;;;;11.90;79.94;99960.98;2142477;83;21345;-79
2022/10/17 05:25:32;;;;;;;29.20;22.67;;;;;;;11.49;81.29;99966.02;2141966;83;20997;-80
2022/10/17 05:28:33;;;;;;;32.65;22.77;;;;;;;11.23;82.65;100005.35;2142271;83;20973;-80
2022/10/17 05:31:33;;;;;;;32.48;23.10;;;;;;;11.02;84.43;99969.95;2141696;83;20997;-81
2022/10/17 05:34:34;;;;;;;51.58;25.90;;;;;;;10.86;85.21;99972.97;2141989;83;20914;-81
2022/10/17 05:37:34;;;;;;;38.90;24.27;;;;;;;10.72;86.04;99979.11;2141538;83;20942;-80
2022/10/17 05:40:34;;;;;;;35.10;24.35;;;;;;;10.65;86.93;99988.91;2141881;83;21338;-79
2022/10/17 05:43:35;;;;;;;35.45;24.05;;;;;;;10.62;87.48;99990.53;2142195;83;21057;-80
2022/10/17 05:46:35;;;;;;;31.62;24.60;;;;;;;10.59;88.27;99993.06;2142210;83;20957;-81
2022/10/17 05:49:36;;;;;;;89.87;29.40;;;;;;;10.59;88.59;99995.67;2142165;83;20906;-80
2022/10/17 05:52:36;;;;;;;43.42;25.72;;;;;;;10.62;89.37;99999.67;2141369;83;20957;-81
2022/10/17 05:55:38;;;;;;;41.77;26.23;;;;;;;10.65;89.33;100001.08;2112750;83;21426;-80
2022/10/17 05:58:39;;;;;;;44.30;26.30;;;;;;;10.70;89.66;100012.55;2141858;83;20986;-80
2022/10/17 06:01:39;;;;;;;42.40;24.75;;;;;;;10.75;90.25;100013.56;2142194;83;20989;-81
2022/10/17 06:04:44;;;;;;;37.05;24.80;;;;;;;10.78;90.25;100030.63;2142194;83;20934;-81
2022/10/17 06:07:40;;;;;;;32.05;25.08;;;;;;;10.82;90.46;100030.77;2142613;83;20949;-80
2022/10/17 06:10:40;;;;;;;29.90;23.00;;;;;;;10.87;90.42;100032.63;2142098;83;20981;-82
2022/10/17 06:13:41;;;;;;;32.50;26.10;;;;;;;10.93;90.60;100030.20;2142176;83;21043;-82
2022/10/17 06:16:42;;;;;;;39.55;24.98;;;;;;;11.00;90.81;100033.45;2142254;83;20942;-84
2022/10/17 06:19:43;;;;;;;56.40;25.80;;;;;;;11.12;91.14;100035.11;2141357;83;20946;-82
2022/10/17 06:22:42;;;;;;;36.85;24.55;;;;;;;11.25;91.52;100035.92;2141831;83;20988;-82
2022/10/17 06:25:42;;;;;;;33.35;25.55;;;;;;;11.42;91.46;100035.99;2141723;83;20989;-82
2022/10/17 06:28:43;;;;;;;67.22;26.23;;;;;;;11.58;91.43;100041.22;2141800;83;20961;-83
2022/10/17 06:31:43;;;;;;;35.70;24.45;;;;;;;11.73;91.34;100039.42;2141181;83;20997;-82
2022/10/17 06:34:44;;;;;;;31.15;23.42;;;;;;;11.90;91.25;100049.05;2141653;83;20918;-82
2022/10/17 06:37:44;;;;;;;38.23;23.50;;;;;;;12.09;91.21;100049.97;2141360;83;21708;-81
2022/10/17 06:40:44;;;;;;;28.45;22.50;;;;;;;12.25;90.92;100054.77;2140675;83;20942;-82
2022/10/17 06:43:45;;;;;;;33.58;21.75;;;;;;;12.44;90.82;100054.78;2141177;83;21001;-82
2022/10/17 06:46:45;;;;;;;31.52;22.30;;;;;;;12.62;90.35;100061.75;2140620;82;21120;-80
2022/10/17 06:49:46;;;;;;;52.17;23.65;;;;;;;12.82;90.07;100069.18;2124384;83;21924;-82
2022/10/17 06:52:47;;;;;;;58.35;22.30;;;;;;;13.02;89.68;100077.08;2143694;82;20930;-83
2022/10/17 06:55:47;;;;;;;24.12;19.57;;;;;;;13.23;89.36;100078.00;2143435;82;20905;-84
2022/10/17 06:58:50;;;;;;;23.35;20.12;;;;;;;13.43;89.13;100079.71;2142864;82;20939;-83
2022/10/17 07:01:48;;;;;;;44.67;19.85;;;;;;;13.61;88.45;100086.20;2143368;82;20984;-83
2022/10/17 07:04:48;;;;;;;27.42;18.87;;;;;;;13.75;87.49;100086.47;2143234;83;20965;-84
2022/10/17 07:07:49;;;;;;;26.07;19.23;;;;;;;13.91;86.92;100087.66;2142838;82;21413;-84
2022/10/17 07:10:50;;;;;;;21.00;18.35;;;;;;;14.08;86.56;100085.34;2143712;82;20941;-84
2022/10/17 07:13:50;;;;;;;27.30;19.12;;;;;;;14.25;86.20;100073.38;2143418;82;20949;-84
2022/10/17 07:16:50;;;;;;;26.37;17.20;;;;;;;14.44;85.98;100075.47;2144118;82;21012;-83
2022/10/17 07:19:51;;;;;;;23.62;17.65;;;;;;;14.60;85.10;100072.22;2143937;82;21680;-83
2022/10/17 07:22:51;;;;;;;22.10;17.12;;;;;;;14.74;84.94;100071.54;2144735;82;20974;-83
2022/10/17 07:25:52;;;;;;;108.95;20.40;;;;;;;14.87;84.52;100067.83;2144665;82;20960;-85
2022/10/17 07:28:52;;;;;;;49.00;19.45;;;;;;;15.11;84.68;100079.11;2144958;82;20957;-83
2022/10/17 07:31:54;;;;;;;22.35;15.53;;;;;;;15.29;83.78;100085.03;2145313;82;21332;-84
2022/10/17 07:34:54;;;;;;;44.85;16.67;;;;;;;15.45;82.95;100090.05;2144341;83;20914;-84
2022/10/17 07:37:55;;;;;;;42.65;17.52;;;;;;;15.63;82.17;100104.81;2146350;82;21000;-82
2022/10/17 07:40:55;;;;;;;25.92;16.55;;;;;;;15.77;81.59;100103.21;2145311;82;21356;-86
2022/10/17 07:43:55;;;;;;;24.67;17.23;;;;;;;15.92;80.53;100103.38;2144415;82;20934;-85
2022/10/17 07:46:56;;;;;;;26.50;16.97;;;;;;;16.02;79.40;100104.78;2147772;82;21028;-85
2022/10/17 07:49:56;;;;;;;24.32;17.65;;;;;;;16.06;78.74;100100.88;2160768;82;20948;-86
2022/10/17 07:52:57;;;;;;;27.67;18.50;;;;;;;16.16;78.55;100104.05;2160341;82;21324;-85
2022/10/17 07:55:57;;;;;;;34.95;18.85;;;;;;;16.30;77.78;100101.97;2161011;82;21308;-85
2022/10/17 07:58:58;;;;;;;35.78;18.77;;;;;;;16.38;78.07;100099.84;2159814;82;21004;-85
2022/10/17 08:01:58;;;;;;;40.20;18.73;;;;;;;16.52;77.86;100103.94;2161144;82;20964;-84
2022/10/17 08:04:59;;;;;;;32.75;18.32;;;;;;;16.62;77.27;100096.55;2161080;82;20964;-84
2022/10/17 08:07:59;;;;;;;20.57;16.90;;;;;;;16.74;76.81;100093.15;2160650;82;21367;-84
2022/10/17 08:10:59;;;;;;;20.90;17.02;;;;;;;16.87;76.42;100091.04;2160905;82;20948;-84
2022/10/17 08:14:00;;;;;;;30.82;19.57;;;;;;;16.98;76.02;100090.66;2160894;82;20961;-84
2022/10/17 08:17:00;;;;;;;29.60;21.02;;;;;;;17.09;75.51;100096.00;2160157;82;21079;-85
2022/10/17 08:20:01;;;;;;;26.62;19.48;;;;;;;17.37;75.81;100089.13;2160134;82;21364;-84
2022/10/17 08:23:01;;;;;;;23.70;17.23;;;;;;;17.52;74.23;100086.55;2160099;82;21642;-85
2022/10/17 08:26:01;;;;;;;19.55;16.07;;;;;;;17.64;74.24;100087.91;2159411;82;20952;-85
2022/10/17 08:29:02;;;;;;;22.35;16.00;;;;;;;17.71;73.44;100091.05;2159617;82;20981;-84
2022/10/17 08:32:02;;;;;;;26.90;15.53;;;;;;;17.87;73.38;100095.92;2159961;82;21613;-83
2022/10/17 08:35:06;;;;;;;21.35;16.07;;;;;;;17.97;72.24;100090.22;2160162;82;20917;-85
2022/10/17 08:38:06;;;;;;;51.92;17.90;;;;;;;18.08;71.24;100102.56;2160262;82;20979;-83
2022/10/17 08:41:06;;;;;;;34.43;17.85;;;;;;;18.14;70.48;100103.89;2160365;82;20936;-83
2022/10/17 08:44:07;;;;;;;36.90;15.83;;;;;;;18.30;70.68;100104.83;2160370;82;21328;-80
2022/10/17 08:47:07;;;;;;;23.85;15.15;;;;;;;18.39;70.18;100100.86;2157523;82;21040;-84
2022/10/17 08:50:08;;;;;;;23.70;14.38;;;;;;;18.54;69.59;100100.42;2172435;81;20948;-81
2022/10/17 08:53:08;;;;;;;54.33;17.00;;;;;;;18.63;68.97;100104.41;2172370;82;20928;-85
2022/10/17 08:56:08;;;;;;;33.70;15.55;;;;;;;18.70;69.61;100096.91;2171753;82;21371;-85
2022/10/17 08:59:09;;;;;;;50.33;18.15;;;;;;;18.87;69.29;100096.89;2171647;82;21001;-83
2022/10/17 09:02:09;;;;;;;25.52;13.90;;;;;;;18.95;68.83;100099.95;2171751;82;20968;-83
2022/10/17 09:05:10;;;;;;;18.65;13.80;;;;;;;19.07;68.74;100095.08;2172618;82;21035;-85
2022/10/17 09:08:10;;;;;;;24.40;15.28;;;;;;;19.17;67.92;100091.99;2172202;82;21442;-84
2022/10/17 09:11:11;;;;;;;27.02;16.15;;;;;;;19.26;68.02;100090.64;2172242;82;20904;-84
2022/10/17 09:14:11;;;;;;;19.27;15.60;;;;;;;19.37;67.26;100085.73;2171706;82;21337;-84
2022/10/17 09:17:11;;;;;;;38.15;15.95;;;;;;;19.47;67.41;100086.58;2170721;82;21416;-85
2022/10/17 09:20:12;;;;;;;36.85;16.55;;;;;;;19.56;66.90;100078.63;2171297;82;21395;-80
2022/10/17 09:23:12;;;;;;;21.25;14.53;;;;;;;19.65;67.17;100078.58;2171908;82;21347;-86
2022/10/17 09:26:13;;;;;;;63.80;17.30;;;;;;;19.78;66.36;100079.83;2171661;82;20932;-86
2022/10/17 09:29:13;;;;;;;34.45;14.00;;;;;;;19.87;65.95;100074.48;2171114;82;20963;-85
2022/10/17 09:32:14;;;;;;;22.85;14.15;;;;;;;19.92;65.51;100077.98;2172603;82;21564;-85
2022/10/17 09:35:14;;;;;;;29.25;13.55;;;;;;;20.00;65.52;100077.52;2172189;82;20977;-87
2022/10/17 09:38:17;;;;;;;31.68;14.25;;;;;;;20.11;64.80;100081.41;2172698;82;20948;-86
2022/10/17 09:41:18;;;;;;;13.58;11.35;;;;;;;20.20;64.18;100086.20;2172555;82;20963;-85
2022/10/17 09:44:18;;;;;;;20.00;12.25;;;;;;;20.32;62.81;100082.58;2172291;82;21254;-85
2022/10/17 09:47:18;;;;;;;14.75;11.20;;;;;;;20.44;62.59;100085.61;2172402;81;20984;-85
2022/10/17 09:50:19;;;;;;;29.40;12.40;;;;;;;20.57;62.96;100080.63;2172322;82;21340;-85
2022/10/17 09:53:19;;;;;;;14.55;11.80;;;;;;;20.69;62.12;100084.49;2172011;82;20941;-84
2022/10/17 09:56:20;;;;;;;21.37;14.53;;;;;;;20.78;61.50;100087.05;2171002;82;20917;-84
2022/10/17 09:59:20;;;;;;;21.87;18.05;;;;;;;20.89;60.33;100089.64;2172087;82;20972;-76
2022/10/17 10:02:20;;;;;;;17.90;13.18;;;;;;;20.95;60.41;100089.13;2171838;82;20975;-83
2022/10/17 10:05:21;;;;;;;24.25;13.43;;;;;;;21.04;59.92;100089.92;2172040;82;21011;-79
2022/10/17 10:08:21;;;;;;;13.20;10.80;;;;;;;21.14;58.43;100091.13;2171986;82;20937;-80
2022/10/17 10:11:22;;;;;;;19.85;11.80;;;;;;;21.19;58.65;100091.08;2171529;82;20928;-82
2022/10/17 10:14:22;;;;;;;21.48;11.55;;;;;;;21.25;58.03;100089.71;2171183;82;20948;-84
2022/10/17 10:17:22;;;;;;;35.13;12.50;;;;;;;21.31;58.40;100085.66;2171214;82;21082;-83
2022/10/17 10:20:23;;;;;;;20.40;12.25;;;;;;;21.39;56.53;100087.77;2172063;82;21770;-85
2022/10/17 10:23:23;;;;;;;19.12;10.53;;;;;;;21.42;55.83;100085.08;2172343;82;20932;-84
2022/10/17 10:26:24;;;;;;;15.45;11.15;;;;;;;21.46;56.42;100078.83;2171709;82;20976;-85
2022/10/17 10:29:24;;;;;;;17.87;12.43;;;;;;;21.50;57.05;100077.88;2172291;82;20941;-83
2022/10/17 10:32:25;;;;;;;15.93;11.83;;;;;;;21.53;56.13;100073.86;2172930;82;20999;-83
2022/10/17 10:35:25;;;;;;;14.95;13.32;;;;;;;21.56;56.82;100072.94;2171703;82;20944;-82
2022/10/17 10:38:28;;;;;;;16.77;11.78;;;;;;;21.62;57.00;100068.88;2172344;82;20941;-85
2022/10/17 10:41:28;;;;;;;69.62;15.30;;;;;;;21.68;56.18;100073.26;2150258;82;20959;-82
2022/10/17 10:44:28;;;;;;;52.88;14.50;;;;;;;21.74;56.98;100074.50;2174132;82;20952;-84
2022/10/17 10:47:29;;;;;;;17.62;11.03;;;;;;;21.79;56.40;100066.89;2175572;82;21027;-82
2022/10/17 10:50:29;;;;;;;20.25;11.90;;;;;;;21.85;56.18;100072.13;2184737;81;20928;-83
2022/10/17 10:53:31;;;;;;;18.55;11.25;;;;;;;21.91;56.42;100069.38;2153183;82;20951;-85
2022/10/17 10:56:32;;;;;;;12.80;10.78;;;;;;;21.97;56.14;100058.22;2183914;82;20979;-83
2022/10/17 10:59:32;;;;;;;440.23;56.08;;;;;;;21.97;55.51;100052.45;2183300;82;21323;-84
2022/10/17 11:02:32;;;;;;;30.97;12.25;;;;;;;22.02;55.34;100054.59;2183696;82;20948;-85
2022/10/17 11:05:33;;;;;;;17.80;11.97;;;;;;;22.04;54.92;100052.81;2183926;82;21019;-84
2022/10/17 11:08:34;;;;;;;72.45;16.77;;;;;;;22.05;55.26;100050.58;2185792;82;20975;-83
2022/10/17 11:11:37;;;;;;;102.67;15.75;;;;;;;22.16;54.69;100039.33;2185308;82;20940;-85
2022/10/17 11:14:34;;;;;;;19.25;11.25;;;;;;;22.23;54.32;100048.95;2185967;81;20975;-84
2022/10/17 11:17:35;;;;;;;49.48;12.98;;;;;;;22.34;54.63;100049.23;2184321;82;21046;-83
2022/10/17 11:20:35;;;;;;;62.93;14.10;;;;;;;22.41;53.42;100043.78;2183033;82;20935;-85
2022/10/17 11:23:35;;;;;;;22.70;11.93;;;;;;;22.43;54.06;100043.30;2182193;82;20940;-83
2022/10/17 11:26:36;;;;;;;14.80;10.00;;;;;;;22.46;54.09;100042.38;2182037;82;20951;-83
2022/10/17 11:29:37;;;;;;;24.70;11.63;;;;;;;22.48;53.44;100040.11;2181999;82;20924;-83
2022/10/17 11:32:37;;;;;;;15.72;11.25;;;;;;;22.46;53.64;100043.70;2181927;82;21355;-83
2022/10/17 11:35:37;;;;;;;26.57;11.22;;;;;;;22.45;53.85;100037.95;2182655;82;20955;-82
2022/10/17 11:38:37;;;;;;;16.07;11.08;;;;;;;22.48;53.72;100036.57;2182612;82;20944;-82
2022/10/17 11:41:38;;;;;;;23.50;11.38;;;;;;;22.54;53.32;100041.78;2183044;81;20983;-83
2022/10/17 11:44:38;;;;;;;69.60;14.50;;;;;;;22.56;52.15;100028.91;2183219;82;20992;-83
2022/10/17 11:47:39;;;;;;;14.35;10.78;;;;;;;22.63;52.21;100034.13;2183541;81;20988;-83
2022/10/17 11:50:39;;;;;;;14.65;10.78;;;;;;;22.71;52.16;100026.42;2190619;81;20944;-83
2022/10/17 11:53:39;;;;;;;12.10;9.85;;;;;;;22.76;52.08;100021.89;2190937;81;21376;-81
2022/10/17 11:56:40;;;;;;;24.85;9.60;;;;;;;22.81;49.75;100020.05;2190845;81;20943;-81
2022/10/17 11:59:40;;;;;;;14.38;8.70;;;;;;;22.86;50.68;100018.62;2190228;81;20916;-80
2022/10/17 12:02:41;;;;;;;13.30;8.90;;;;;;;22.90;49.92;100016.33;2190077;81;21348;-82
2022/10/17 12:05:41;;;;;;;12.15;8.55;;;;;;;22.97;49.96;100019.29;2189698;81;20987;-81
2022/10/17 12:08:43;;;;;;;15.78;9.60;;;;;;;23.03;50.39;100024.50;2158591;81;20908;-81
2022/10/17 12:11:44;;;;;;;27.02;10.55;;;;;;;23.09;49.00;100022.16;2189325;81;21351;-82
2022/10/17 12:14:45;;;;;;;16.40;9.73;;;;;;;23.05;49.49;100015.14;2188817;81;20963;-82
2022/10/17 12:17:45;;;;;;;12.82;9.18;;;;;;;23.02;50.00;100014.75;2189438;81;20967;-80
2022/10/17 12:20:45;;;;;;;19.85;8.73;;;;;;;23.01;49.49;100010.79;2189333;81;21313;-81
2022/10/17 12:23:45;;;;;;;13.05;9.98;;;;;;;22.96;49.80;100008.22;2188495;81;20944;-82
2022/10/17 12:26:46;;;;;;;8.53;7.65;;;;;;;22.96;49.68;100010.00;2187907;81;21070;-80
2022/10/17 12:29:47;;;;;;;24.75;14.00;;;;;;;22.89;48.48;100006.59;2187890;81;20956;-82
2022/10/17 12:32:47;;;;;;;14.83;11.78;;;;;;;22.84;49.90;100010.67;2188217;81;21311;-80
2022/10/17 12:35:48;;;;;;;11.25;9.05;;;;;;;22.90;50.13;100008.80;2187746;81;20998;-80
2022/10/17 12:38:48;;;;;;;34.95;12.33;;;;;;;22.93;49.95;100002.08;2188744;81;20979;-82
2022/10/17 12:41:48;;;;;;;20.72;9.95;;;;;;;22.95;49.45;100005.13;2189106;81;20939;-84
2022/10/17 12:44:48;;;;;;;44.08;11.55;;;;;;;22.96;49.14;99999.36;2189677;81;20939;-83
2022/10/17 12:47:49;;;;;;;21.23;10.08;;;;;;;22.92;48.74;99993.66;2189421;81;21345;-82
2022/10/17 12:50:49;;;;;;;35.23;10.75;;;;;;;22.94;49.58;99998.05;2190221;81;20955;-83
2022/10/17 12:53:50;;;;;;;13.00;9.18;;;;;;;22.96;49.06;99996.69;2190398;81;20935;-81
2022/10/17 12:56:50;;;;;;;16.23;10.18;;;;;;;22.94;49.67;99998.51;2190562;81;20936;-81
2022/10/17 12:59:50;;;;;;;11.78;9.33;;;;;;;22.92;49.08;99997.20;2190016;81;20998;-82
2022/10/17 13:02:51;;;;;;;13.88;9.63;;;;;;;22.91;49.54;99998.12;2190715;81;20967;-81
2022/10/17 13:05:51;;;;;;;28.98;10.80;;;;;;;22.88;48.89;99992.40;2190499;81;20971;-82
2022/10/17 13:08:52;;;;;;;15.32;9.35;;;;;;;22.88;49.36;100000.39;2190978;81;20923;-82
2022/10/17 13:11:52;;;;;;;18.35;9.60;;;;;;;22.89;49.00;100001.27;2189853;81;21323;-81
2022/10/17 13:14:53;;;;;;;153.70;18.95;;;;;;;22.84;48.96;100005.80;2189631;81;20939;-84
2022/10/17 13:17:53;;;;;;;22.37;8.28;;;;;;;22.80;49.17;100000.99;2189422;81;20931;-80
2022/10/17 13:20:53;;;;;;;18.75;8.83;;;;;;;22.80;48.70;99994.79;2188992;81;20935;-81
2022/10/17 13:23:54;;;;;;;11.63;8.70;;;;;;;22.78;48.74;99995.23;2188753;81;20911;-81
2022/10/17 13:26:54;;;;;;;14.65;8.80;;;;;;;22.74;49.57;99991.76;2189003;81;20971;-83
2022/10/17 13:29:58;;;;;;;12.45;9.30;;;;;;;22.76;48.82;99995.27;2189444;81;20968;-83
2022/10/17 13:32:58;;;;;;;16.00;9.25;;;;;;;22.73;48.94;99991.34;2189646;81;21367;-81
2022/10/17 13:35:58;;;;;;;13.95;8.05;;;;;;;22.68;49.29;99993.66;2189148;81;20948;-81
2022/10/17 13:38:59;;;;;;;10.75;8.70;;;;;;;22.63;49.58;99996.41;2189514;81;20971;-82
2022/10/17 13:41:59;;;;;;;19.50;8.45;;;;;;;22.58;49.44;99992.96;2189611;81;20908;-81
2022/10/17 13:45:04;;;;;;;124.42;15.78;;;;;;;22.58;49.89;99990.75;2159658;81;20953;-83